createdAt,value
2019-02-05T01:11:29.095Z,78.83
2019-02-05T01:12:29.206Z,78.92
2019-02-05T01:13:29.421Z,78.83
2019-02-05T01:14:29.641Z,79.39
2019-02-05T01:15:29.856Z,79.68
2019-02-05T01:16:30.065Z,79.39
2019-02-05T01:17:30.282Z,79.21
2019-02-05T01:18:30.502Z,79.87
2019-02-05T01:19:30.719Z,80.34
2019-02-05T01:20:30.939Z,79.68
2019-02-05T01:21:31.157Z,79.49
2019-02-05T01:22:31.381Z,79.68
2019-02-05T01:23:31.600Z,79.11
2019-02-05T01:24:31.822Z,79.21
2019-02-05T01:25:32.119Z,79.68
2019-02-05T01:26:32.257Z,80.06
2019-02-05T01:27:32.476Z,80.34
2019-02-05T01:28:32.699Z,80.34
2019-02-05T01:29:32.913Z,80.34
2019-02-05T01:30:33.130Z,80.15
2019-02-05T01:31:33.345Z,80.15
2019-02-05T01:32:33.567Z,80.15
2019-02-05T01:33:33.784Z,80.34
2019-02-05T01:34:34.009Z,80.87
2019-02-05T01:35:34.287Z,80.77
2019-02-05T01:36:34.442Z,80.91
2019-02-05T01:37:34.662Z,81.44
2019-02-05T01:38:34.880Z,80.68
2019-02-05T01:39:35.097Z,81.34
2019-02-05T01:40:35.321Z,81.25
2019-02-05T01:41:35.541Z,81.15
2019-02-05T01:42:35.757Z,81.15
2019-02-05T01:43:36.045Z,81.15
2019-02-05T01:44:36.204Z,81.34
2019-02-05T01:45:36.424Z,81.25
2019-02-05T01:46:36.641Z,81.44
2019-02-05T01:47:36.862Z,81.44
2019-02-05T01:48:37.081Z,82.01
2019-02-05T01:49:37.305Z,81.63
2019-02-05T01:50:37.519Z,82.57
2019-02-05T01:51:37.742Z,81.63
2019-02-05T01:52:37.959Z,81.82
2019-02-05T01:53:38.178Z,82.01
2019-02-05T01:54:38.395Z,81.72
2019-02-05T01:55:38.619Z,81.82
2019-02-05T01:56:40.850Z,81.92
2019-02-05T01:57:39.059Z,82.39
2019-02-05T01:58:39.268Z,82.29
2019-02-05T01:59:39.488Z,82.29
2019-02-05T02:00:39.719Z,82.57
2019-02-05T02:01:39.928Z,82.57
2019-02-05T02:02:40.146Z,82.39
2019-02-05T02:03:40.369Z,83.24
2019-02-05T02:04:40.585Z,82.57
2019-02-05T02:05:40.804Z,82.48
2019-02-05T02:06:41.023Z,82.95
2019-02-05T02:07:41.244Z,82.29
2019-02-05T02:08:41.546Z,82.67
2019-02-05T02:09:41.686Z,82.48
2019-02-05T02:10:41.904Z,82.48
2019-02-05T02:11:42.127Z,82.48
2019-02-05T02:12:42.346Z,82.10
2019-02-05T02:13:42.563Z,82.29
2019-02-05T02:14:42.783Z,82.20
2019-02-05T02:15:43.001Z,82.10
2019-02-05T02:16:43.220Z,82.39
2019-02-05T02:17:43.438Z,82.95
2019-02-05T02:18:43.662Z,82.57
2019-02-05T02:19:43.889Z,82.86
2019-02-05T02:20:44.097Z,82.86
2019-02-05T02:21:44.320Z,82.95
2019-02-05T02:22:44.529Z,82.95
2019-02-05T02:23:44.755Z,82.67
2019-02-05T02:24:44.975Z,82.67
2019-02-05T02:25:45.187Z,82.95
2019-02-05T02:26:51.803Z,82.10
2019-02-05T02:27:45.626Z,82.39
2019-02-05T02:28:45.844Z,81.63
2019-02-05T02:29:46.069Z,81.82
2019-02-05T02:30:46.291Z,82.39
2019-02-05T02:31:46.508Z,82.67
2019-02-05T02:32:46.739Z,82.14
2019-02-05T02:33:46.938Z,82.05
2019-02-05T02:34:47.159Z,81.72
2019-02-05T02:35:47.377Z,82.33
2019-02-05T02:36:47.595Z,82.24
2019-02-05T02:37:47.820Z,82.05
2019-02-05T02:38:48.041Z,82.52
2019-02-05T02:39:48.257Z,82.52
2019-02-05T02:40:48.477Z,81.76
2019-02-05T02:41:48.696Z,81.82
2019-02-05T02:42:48.927Z,81.86
2019-02-05T02:43:49.139Z,82.14
2019-02-05T02:44:49.355Z,81.57
2019-02-05T02:45:49.571Z,82.05
2019-02-05T02:46:49.790Z,81.95
2019-02-05T02:47:50.000Z,81.95
2019-02-05T02:48:50.220Z,81.57
2019-02-05T02:49:50.449Z,81.67
2019-02-05T02:50:50.656Z,81.38
2019-02-05T02:51:50.878Z,81.48
2019-02-05T02:52:51.105Z,82.05
2019-02-05T02:53:51.315Z,81.95
2019-02-05T02:54:51.538Z,81.76
2019-02-05T02:55:51.758Z,81.48
2019-02-05T02:57:04.396Z,80.82
2019-02-05T02:57:52.197Z,81.01
2019-02-05T02:58:52.421Z,80.63
2019-02-05T02:59:52.636Z,81.29
2019-02-05T03:00:52.849Z,80.63
2019-02-05T03:01:53.078Z,81.48
2019-02-05T03:02:53.296Z,82.62
2019-02-05T03:03:53.555Z,82.24
2019-02-05T03:04:53.771Z,82.14
2019-02-05T03:05:54.014Z,82.33
2019-02-05T03:06:54.223Z,82.48
2019-02-05T03:07:54.430Z,82.81
2019-02-05T03:08:54.647Z,82.71
2019-02-05T03:09:54.879Z,82.33
2019-02-05T03:10:55.089Z,82.43
2019-02-05T03:11:55.309Z,82.81
2019-02-05T03:12:55.531Z,82.71
2019-02-05T03:13:55.748Z,82.90
2019-02-05T03:14:55.971Z,82.62
2019-02-05T03:15:56.193Z,82.24
2019-02-05T03:16:56.403Z,82.24
2019-02-05T03:17:56.614Z,82.33
2019-02-05T03:18:56.837Z,81.67
2019-02-05T03:19:57.059Z,81.86
2019-02-05T03:20:57.312Z,81.86
2019-02-05T03:21:57.503Z,81.57
2019-02-05T03:22:57.723Z,81.67
2019-02-05T03:23:57.943Z,81.29
2019-02-05T03:24:58.160Z,81.38
2019-02-05T03:25:58.388Z,81.38
2019-02-05T03:26:58.602Z,81.48
2019-02-05T03:27:58.829Z,81.38
2019-02-05T03:28:59.045Z,81.57
2019-02-05T03:29:59.269Z,81.57
2019-02-05T03:30:59.487Z,82.14
2019-02-05T03:31:59.706Z,81.48
2019-02-05T03:32:59.932Z,80.91
2019-02-05T03:34:00.143Z,81.48
2019-02-05T03:35:00.400Z,81.29
2019-02-05T03:36:00.602Z,80.91
2019-02-05T03:37:00.812Z,80.72
2019-02-05T03:38:01.026Z,81.01
2019-02-05T03:39:01.248Z,81.48
2019-02-05T03:40:01.469Z,81.57
2019-02-05T03:41:01.690Z,80.72
2019-02-05T03:42:02.098Z,80.63
2019-02-05T03:43:02.129Z,81.01
2019-02-05T03:44:02.346Z,80.53
2019-02-05T03:45:02.565Z,80.91
2019-02-05T03:46:02.792Z,80.53
2019-02-05T03:47:03.001Z,80.63
2019-02-05T03:48:03.229Z,80.15
2019-02-05T03:49:03.453Z,81.10
2019-02-05T03:50:03.676Z,81.01
2019-02-05T03:51:03.896Z,80.91
2019-02-05T03:52:04.117Z,80.72
2019-02-05T03:53:04.336Z,80.72
2019-02-05T03:54:04.558Z,81.10
2019-02-05T03:55:04.777Z,80.06
2019-02-05T03:56:04.997Z,80.34
2019-02-05T03:57:05.309Z,80.91
2019-02-05T03:58:05.451Z,80.91
2019-02-05T03:59:05.659Z,81.01
2019-02-05T04:00:05.874Z,80.53
2019-02-05T04:01:06.091Z,80.91
2019-02-05T04:02:06.312Z,80.91
2019-02-05T04:03:06.543Z,81.20
2019-02-05T04:04:06.757Z,80.63
2019-02-05T04:05:06.977Z,81.38
2019-02-05T04:06:07.198Z,82.05
2019-02-05T04:07:07.421Z,81.86
2019-02-05T04:08:07.641Z,81.76
2019-02-05T04:09:07.863Z,80.72
2019-02-05T04:10:08.195Z,80.53
2019-02-05T04:11:08.311Z,80.44
2019-02-05T04:12:08.533Z,81.10
2019-02-05T04:13:08.751Z,81.20
2019-02-05T04:14:08.972Z,81.67
2019-02-05T04:15:09.190Z,82.33
2019-02-05T04:16:09.415Z,82.62
2019-02-05T04:17:09.654Z,81.38
2019-02-05T04:18:09.859Z,81.67
2019-02-05T04:19:10.082Z,81.86
2019-02-05T04:20:10.303Z,82.71
2019-02-05T04:21:10.546Z,82.43
2019-02-05T04:22:10.858Z,82.52
2019-02-05T04:23:10.976Z,82.24
2019-02-05T04:24:11.196Z,82.14
2019-02-05T04:25:11.415Z,82.81
2019-02-05T04:26:11.641Z,82.62
2019-02-05T04:27:11.859Z,82.43
2019-02-05T04:28:12.073Z,83.00
2019-02-05T04:29:12.294Z,82.62
2019-02-05T04:30:12.517Z,82.62
2019-02-05T04:31:12.735Z,83.00
2019-02-05T04:32:12.959Z,83.00
2019-02-05T04:33:13.187Z,82.90
2019-02-05T04:34:13.404Z,82.81
2019-02-05T04:35:13.630Z,82.81
2019-02-05T04:36:13.864Z,82.33
2019-02-05T04:37:14.086Z,82.52
2019-02-05T04:38:14.307Z,81.86
2019-02-05T04:39:14.522Z,81.95
2019-02-05T04:40:14.743Z,82.81
2019-02-05T04:41:14.963Z,82.90
2019-02-05T04:42:15.194Z,82.62
2019-02-05T04:43:15.410Z,83.00
2019-02-05T04:44:15.631Z,82.81
2019-02-05T04:45:15.852Z,83.00
2019-02-05T04:46:16.067Z,82.81
2019-02-05T04:47:16.297Z,82.71
2019-02-05T04:48:16.516Z,82.71
2019-02-05T04:49:16.738Z,83.28
2019-02-05T04:50:16.959Z,83.00
2019-02-05T04:51:17.178Z,83.28
2019-02-05T04:52:17.397Z,82.62
2019-02-05T04:53:17.625Z,83.28
2019-02-05T04:54:17.842Z,83.37
2019-02-05T04:55:18.061Z,82.90
2019-02-05T04:56:18.284Z,83.47
2019-02-05T04:57:18.503Z,83.23
2019-02-05T04:58:18.721Z,82.66
2019-02-05T04:59:18.943Z,82.75
2019-02-05T05:00:19.157Z,83.04
2019-02-05T05:01:19.380Z,82.85
2019-02-05T05:02:19.598Z,82.75
2019-02-05T05:03:19.816Z,83.32
2019-02-05T05:04:20.038Z,82.81
2019-02-05T05:05:20.260Z,82.71
2019-02-05T05:06:20.482Z,82.71
2019-02-05T05:07:20.705Z,82.52
2019-02-05T05:08:20.927Z,82.71
2019-02-05T05:09:21.148Z,82.52
2019-02-05T05:10:21.375Z,82.71
2019-02-05T05:11:21.596Z,83.94
2019-02-05T05:12:21.811Z,83.56
2019-02-05T05:13:22.041Z,83.09
2019-02-05T05:14:22.260Z,83.00
2019-02-05T05:15:22.473Z,83.09
2019-02-05T05:16:22.696Z,82.90
2019-02-05T05:17:22.995Z,82.90
2019-02-05T05:18:23.138Z,82.71
2019-02-05T05:19:23.371Z,82.33
2019-02-05T05:20:23.586Z,82.71
2019-02-05T05:21:23.809Z,82.62
2019-02-05T05:22:24.027Z,83.28
2019-02-05T05:23:24.247Z,83.18
2019-02-05T05:24:24.466Z,83.18
2019-02-05T05:25:24.693Z,82.81
2019-02-05T05:26:24.916Z,83.00
2019-02-05T05:27:25.164Z,83.09
2019-02-05T05:28:25.337Z,83.47
2019-02-05T05:29:25.545Z,84.13
2019-02-05T05:30:25.804Z,83.75
2019-02-05T05:31:26.015Z,83.37
2019-02-05T05:32:26.221Z,83.47
2019-02-05T05:33:26.580Z,84.13
2019-02-05T05:34:26.624Z,83.42
2019-02-05T05:35:26.844Z,83.23
2019-02-05T05:36:27.086Z,83.42
2019-02-05T05:37:27.286Z,83.23
2019-02-05T05:38:27.506Z,82.18
2019-02-05T05:39:27.727Z,82.66
2019-02-05T05:40:27.937Z,82.37
2019-02-05T05:41:28.153Z,82.66
2019-02-05T05:42:28.377Z,82.52
2019-02-05T05:43:28.596Z,83.09
2019-02-05T05:44:28.814Z,83.28
2019-02-05T05:45:29.036Z,83.56
2019-02-05T05:46:29.260Z,83.51
2019-02-05T05:47:29.482Z,83.09
2019-02-05T05:48:29.708Z,83.00
2019-02-05T05:49:29.926Z,83.47
2019-02-05T05:50:30.154Z,83.42
2019-02-05T05:51:30.365Z,83.47
2019-02-05T05:52:30.583Z,84.08
2019-02-05T05:53:30.804Z,83.28
2019-02-05T05:54:31.029Z,83.09
2019-02-05T05:55:31.329Z,83.23
2019-02-05T05:56:31.470Z,83.28
2019-02-05T05:57:31.696Z,83.56
2019-02-05T05:58:31.921Z,83.85
2019-02-05T05:59:32.128Z,83.51
2019-02-05T06:00:32.376Z,83.13
2019-02-05T06:01:32.579Z,83.32
2019-02-05T06:02:32.781Z,83.32
2019-02-05T06:03:33.005Z,83.70
2019-02-05T06:04:33.222Z,84.17
2019-02-05T06:05:33.442Z,83.61
2019-02-05T06:06:33.661Z,83.42
2019-02-05T06:07:33.880Z,83.42
2019-02-05T06:08:34.099Z,83.51
2019-02-05T06:09:34.321Z,83.42
2019-02-05T06:10:34.540Z,83.61
2019-02-05T06:11:34.756Z,83.56
2019-02-05T06:12:34.976Z,83.66
2019-02-05T06:13:35.200Z,84.23
2019-02-05T06:14:35.416Z,84.23
2019-02-05T06:15:36.071Z,84.42
2019-02-05T06:16:35.848Z,84.61
2019-02-05T06:17:36.063Z,85.08
2019-02-05T06:18:36.283Z,85.17
2019-02-05T06:19:36.509Z,85.17
2019-02-05T06:20:36.725Z,85.65
2019-02-05T06:21:36.958Z,86.22
2019-02-05T06:22:37.170Z,85.93
2019-02-05T06:23:37.398Z,86.12
2019-02-05T06:24:37.617Z,86.03
2019-02-05T06:25:37.835Z,85.84
2019-02-05T06:26:38.049Z,85.46
2019-02-05T06:27:38.273Z,85.08
2019-02-05T06:28:38.481Z,85.46
2019-02-05T06:29:38.705Z,85.55
2019-02-05T06:30:38.919Z,85.46
2019-02-05T06:31:39.129Z,85.93
2019-02-05T06:32:39.365Z,85.74
2019-02-05T06:33:39.569Z,85.93
2019-02-05T06:34:39.786Z,86.98
2019-02-05T06:35:40.003Z,86.12
2019-02-05T06:36:40.224Z,85.74
2019-02-05T06:37:40.444Z,85.74
2019-02-05T06:38:40.659Z,86.50
2019-02-05T06:39:40.884Z,86.50
2019-02-05T06:40:41.106Z,86.79
2019-02-05T06:41:41.324Z,86.60
2019-02-05T06:42:41.546Z,86.79
2019-02-05T06:43:41.764Z,86.31
2019-02-05T06:44:41.992Z,86.22
2019-02-05T06:45:42.208Z,86.69
2019-02-05T06:46:42.425Z,86.41
2019-02-05T06:47:42.648Z,85.46
2019-02-05T06:48:42.869Z,84.99
2019-02-05T06:49:43.089Z,85.27
2019-02-05T06:50:43.312Z,85.46
2019-02-05T06:51:43.531Z,85.36
2019-02-05T06:52:43.752Z,85.46
2019-02-05T06:53:43.984Z,86.12
2019-02-05T06:54:44.201Z,85.65
2019-02-05T06:55:44.414Z,84.89
2019-02-05T06:56:44.631Z,85.55
2019-02-05T06:57:44.857Z,85.46
2019-02-05T06:58:46.736Z,85.27
2019-02-05T06:59:45.304Z,84.89
2019-02-05T07:00:45.521Z,84.42
2019-02-05T07:01:45.745Z,84.80
2019-02-05T07:02:45.966Z,84.99
2019-02-05T07:03:46.190Z,84.99
2019-02-05T07:04:46.407Z,84.51
2019-02-05T07:05:46.630Z,84.99
2019-02-05T07:06:46.841Z,85.27
2019-02-05T07:07:47.058Z,84.99
2019-02-05T07:08:47.280Z,84.61
2019-02-05T07:09:47.508Z,85.46
2019-02-05T07:10:47.736Z,85.74
2019-02-05T07:11:47.948Z,85.27
2019-02-05T07:12:48.168Z,85.08
2019-02-05T07:13:48.389Z,85.03
2019-02-05T07:14:48.611Z,85.03
2019-02-05T07:15:48.832Z,84.46
2019-02-05T07:16:49.055Z,84.17
2019-02-05T07:17:50.399Z,84.55
2019-02-05T07:18:49.518Z,84.74
2019-02-05T07:19:49.720Z,84.94
2019-02-05T07:20:49.930Z,85.03
2019-02-05T07:21:50.155Z,85.22
2019-02-05T07:22:50.374Z,85.03
2019-02-05T07:23:50.591Z,85.50
2019-02-05T07:24:50.815Z,85.69
2019-02-05T07:25:51.039Z,85.50
2019-02-05T07:26:51.255Z,85.60
2019-02-05T07:27:51.478Z,85.41
2019-02-05T07:28:58.958Z,85.22
2019-02-05T07:29:51.923Z,85.22
2019-02-05T07:30:52.141Z,84.65
2019-02-05T07:31:52.362Z,84.84
2019-02-05T07:32:52.583Z,84.84
2019-02-05T07:33:52.805Z,85.13
2019-02-05T07:34:53.029Z,85.13
2019-02-05T07:35:53.254Z,85.69
2019-02-05T07:36:53.480Z,84.94
2019-02-05T07:37:53.701Z,84.65
2019-02-05T07:38:53.922Z,85.03
2019-02-05T07:39:54.159Z,85.03
2019-02-05T07:40:54.367Z,85.03
2019-02-05T07:41:54.586Z,84.55
2019-02-05T07:42:54.831Z,84.46
2019-02-05T07:43:55.031Z,84.84
2019-02-05T07:44:55.252Z,84.74
2019-02-05T07:45:55.474Z,84.65
2019-02-05T07:46:55.703Z,84.55
2019-02-05T07:47:55.920Z,84.36
2019-02-05T07:48:56.139Z,84.36
2019-02-05T07:49:56.359Z,84.27
2019-02-05T07:50:56.582Z,84.08
2019-02-05T07:51:56.866Z,83.98
2019-02-05T07:52:57.022Z,83.80
2019-02-05T07:53:57.308Z,83.89
2019-02-05T07:54:57.468Z,84.27
2019-02-05T07:55:57.691Z,83.84
2019-02-05T07:56:57.909Z,83.80
2019-02-05T07:57:58.130Z,84.12
2019-02-05T07:59:09.499Z,84.12
2019-02-05T07:59:58.584Z,83.84
2019-02-05T08:00:58.791Z,83.84
2019-02-05T08:01:59.015Z,83.94
2019-02-05T08:02:59.238Z,83.55
2019-02-05T08:03:59.452Z,83.27
2019-02-05T08:05:00.816Z,83.17
2019-02-05T08:05:59.895Z,83.94
2019-02-05T08:07:00.118Z,83.94
2019-02-05T08:08:00.352Z,83.89
2019-02-05T08:09:00.569Z,83.65
2019-02-05T08:10:00.787Z,83.74
2019-02-05T08:11:00.992Z,83.74
2019-02-05T08:12:01.209Z,84.03
2019-02-05T08:13:01.441Z,83.46
2019-02-05T08:14:01.658Z,83.36
2019-02-05T08:15:01.905Z,83.74
2019-02-05T08:16:02.102Z,84.22
2019-02-05T08:17:02.321Z,83.55
2019-02-05T08:18:02.547Z,83.84
2019-02-05T08:19:02.770Z,83.65
2019-02-05T08:20:02.993Z,83.74
2019-02-05T08:21:03.214Z,83.94
2019-02-05T08:22:03.441Z,84.50
2019-02-05T08:23:03.662Z,84.50
2019-02-05T08:24:03.882Z,84.78
2019-02-05T08:25:04.104Z,85.17
2019-02-05T08:26:04.331Z,84.50
2019-02-05T08:27:04.550Z,84.50
2019-02-05T08:28:04.770Z,84.69
2019-02-05T08:29:04.994Z,84.69
2019-02-05T08:30:05.217Z,84.31
2019-02-05T08:31:05.435Z,84.69
2019-02-05T08:32:05.658Z,84.22
2019-02-05T08:33:05.881Z,84.22
2019-02-05T08:34:06.103Z,84.12
2019-02-05T08:35:06.329Z,84.03
2019-02-05T08:36:06.547Z,83.74
2019-02-05T08:37:06.771Z,84.22
2019-02-05T08:38:06.993Z,83.84
2019-02-05T08:39:07.216Z,82.98
2019-02-05T08:40:07.437Z,82.98
2019-02-05T08:41:07.661Z,82.98
2019-02-05T08:42:07.880Z,82.42
2019-02-05T08:43:08.101Z,82.98
2019-02-05T08:44:08.322Z,82.89
2019-02-05T08:45:08.543Z,83.94
2019-02-05T08:46:08.769Z,83.46
2019-02-05T08:47:08.987Z,82.98
2019-02-05T08:48:09.215Z,82.89
2019-02-05T08:49:09.433Z,82.70
2019-02-05T08:50:09.655Z,82.84
2019-02-05T08:51:09.878Z,82.70
2019-02-05T08:52:10.101Z,81.79
2019-02-05T08:53:10.326Z,82.04
2019-02-05T08:54:10.548Z,82.42
2019-02-05T08:55:10.772Z,82.04
2019-02-05T08:56:10.991Z,82.60
2019-02-05T08:57:11.216Z,82.70
2019-02-05T08:58:11.444Z,82.60
2019-02-05T08:59:11.663Z,83.17
2019-02-05T09:00:11.887Z,83.46
2019-02-05T09:01:14.378Z,83.94
2019-02-05T09:02:12.330Z,82.98
2019-02-05T09:03:12.613Z,82.98
2019-02-05T09:04:12.777Z,82.79
2019-02-05T09:05:13.009Z,82.70
2019-02-05T09:06:13.220Z,82.36
2019-02-05T09:07:13.443Z,81.94
2019-02-05T09:08:13.666Z,82.51
2019-02-05T09:09:13.929Z,82.79
2019-02-05T09:10:14.103Z,83.17
2019-02-05T09:11:14.330Z,82.84
2019-02-05T09:12:14.554Z,82.46
2019-02-05T09:13:14.780Z,82.36
2019-02-05T09:14:15.000Z,81.98
2019-02-05T09:15:15.224Z,81.88
2019-02-05T09:16:15.446Z,81.70
2019-02-05T09:17:15.668Z,81.32
2019-02-05T09:18:15.890Z,81.32
2019-02-05T09:19:16.116Z,81.51
2019-02-05T09:20:16.341Z,82.17
2019-02-05T09:21:16.562Z,81.41
2019-02-05T09:22:16.786Z,80.94
2019-02-05T09:23:17.009Z,81.70
2019-02-05T09:24:17.233Z,81.13
2019-02-05T09:25:17.459Z,80.46
2019-02-05T09:26:17.678Z,80.46
2019-02-05T09:27:17.903Z,80.56
2019-02-05T09:28:18.126Z,81.04
2019-02-05T09:29:18.361Z,81.41
2019-02-05T09:30:18.575Z,81.13
2019-02-05T09:31:18.799Z,81.23
2019-02-05T09:32:19.022Z,80.79
2019-02-05T09:33:19.243Z,79.90
2019-02-05T09:34:19.464Z,79.90
2019-02-05T09:35:19.690Z,80.08
2019-02-05T09:36:19.909Z,80.60
2019-02-05T09:37:20.133Z,80.41
2019-02-05T09:38:20.356Z,80.41
2019-02-05T09:39:20.579Z,80.32
2019-02-05T09:40:20.804Z,80.32
2019-02-05T09:41:21.026Z,80.51
2019-02-05T09:42:21.251Z,79.55
2019-02-05T09:43:21.474Z,78.89
2019-02-05T09:44:21.699Z,79.27
2019-02-05T09:45:21.917Z,78.99
2019-02-05T09:46:22.172Z,78.51
2019-02-05T09:47:22.362Z,78.61
2019-02-05T09:48:22.587Z,78.99
2019-02-05T09:49:22.808Z,79.27
2019-02-05T09:50:23.032Z,78.17
2019-02-05T09:51:23.257Z,77.60
2019-02-05T09:52:23.485Z,77.41
2019-02-05T09:53:23.706Z,77.79
2019-02-05T09:54:23.927Z,77.31
2019-02-05T09:55:24.158Z,77.12
2019-02-05T09:56:24.382Z,77.47
2019-02-05T09:57:24.600Z,78.61
2019-02-05T09:58:24.825Z,78.42
2019-02-05T09:59:25.051Z,78.61
2019-02-05T10:00:25.272Z,78.55
2019-02-05T10:01:25.493Z,79.03
2019-02-05T10:02:25.716Z,78.93
2019-02-05T10:03:25.942Z,79.03
2019-02-05T10:04:26.165Z,78.99
2019-02-05T10:05:26.389Z,79.69
2019-02-05T10:06:26.611Z,79.31
2019-02-05T10:07:26.833Z,79.79
2019-02-05T10:08:27.058Z,79.88
2019-02-05T10:09:27.282Z,80.93
2019-02-05T10:10:27.507Z,80.93
2019-02-05T10:11:27.730Z,79.69
2019-02-05T10:12:27.955Z,79.69
2019-02-05T10:13:28.179Z,79.79
2019-02-05T10:14:28.402Z,79.69
2019-02-05T10:15:28.630Z,79.69
2019-02-05T10:16:28.854Z,79.03
2019-02-05T10:17:29.077Z,79.31
2019-02-05T10:18:29.300Z,79.65
2019-02-05T10:19:29.522Z,80.69
2019-02-05T10:20:29.751Z,81.68
2019-02-05T10:21:29.972Z,82.07
2019-02-05T10:22:30.200Z,81.12
2019-02-05T10:23:30.422Z,80.64
2019-02-05T10:24:30.650Z,80.64
2019-02-05T10:25:30.867Z,80.74
2019-02-05T10:26:31.090Z,81.68
2019-02-05T10:27:31.315Z,80.77
2019-02-05T10:28:31.538Z,79.92
2019-02-05T10:29:31.760Z,79.63
2019-02-05T10:30:31.984Z,79.35
2019-02-05T10:31:32.209Z,79.63
2019-02-05T10:32:32.433Z,80.11
2019-02-05T10:33:32.659Z,80.21
2019-02-05T10:34:34.384Z,80.58
2019-02-05T10:35:33.102Z,80.96
2019-02-05T10:36:33.326Z,80.40
2019-02-05T10:37:33.548Z,78.97
2019-02-05T10:38:33.772Z,79.25
2019-02-05T10:39:33.996Z,79.16
2019-02-05T10:40:34.220Z,79.54
2019-02-05T10:41:34.448Z,79.16
2019-02-05T10:42:34.672Z,80.11
2019-02-05T10:43:34.890Z,79.54
2019-02-05T10:44:35.107Z,80.02
2019-02-05T10:45:35.331Z,79.63
2019-02-05T10:46:35.556Z,79.25
2019-02-05T10:47:35.786Z,79.83
2019-02-05T10:48:36.007Z,79.73
2019-02-05T10:49:36.230Z,80.21
2019-02-05T10:50:36.459Z,79.83
2019-02-05T10:51:36.684Z,79.54
2019-02-05T10:52:36.905Z,79.54
2019-02-05T10:53:37.129Z,79.54
2019-02-05T10:54:37.353Z,79.83
2019-02-05T10:55:37.575Z,80.26
2019-02-05T10:56:37.804Z,80.35
2019-02-05T10:57:38.023Z,81.02
2019-02-05T10:58:38.244Z,81.06
2019-02-05T10:59:38.471Z,80.40
2019-02-05T11:00:38.694Z,80.68
2019-02-05T11:01:38.921Z,80.58
2019-02-05T11:02:39.145Z,80.02
2019-02-05T11:03:39.371Z,80.40
2019-02-05T11:04:39.593Z,81.16
2019-02-05T11:05:39.819Z,81.59
2019-02-05T11:06:40.157Z,81.49
2019-02-05T11:07:40.285Z,81.92
2019-02-05T11:08:40.489Z,81.35
2019-02-05T11:09:40.709Z,80.58
2019-02-05T11:10:40.934Z,81.30
2019-02-05T11:11:41.158Z,81.06
2019-02-05T11:12:41.381Z,81.02
2019-02-05T11:13:41.607Z,81.87
2019-02-05T11:14:41.831Z,81.12
2019-02-05T11:15:42.057Z,81.21
2019-02-05T11:16:42.324Z,81.59
2019-02-05T11:17:42.507Z,81.87
2019-02-05T11:18:42.733Z,83.20
2019-02-05T11:19:42.961Z,83.39
2019-02-05T11:20:43.299Z,83.36
2019-02-05T11:21:43.409Z,83.83
2019-02-05T11:22:43.630Z,84.40
2019-02-05T11:23:43.855Z,84.34
2019-02-05T11:24:44.075Z,85.06
2019-02-05T11:25:44.298Z,85.53
2019-02-05T11:26:44.526Z,85.01
2019-02-05T11:27:45.949Z,84.59
2019-02-05T11:28:44.972Z,84.59
2019-02-05T11:29:45.197Z,84.97
2019-02-05T11:30:45.424Z,85.16
2019-02-05T11:31:45.649Z,85.25
2019-02-05T11:32:45.870Z,85.82
2019-02-05T11:33:46.093Z,86.30
2019-02-05T11:34:46.320Z,87.05
2019-02-05T11:35:46.547Z,88.01
2019-02-05T11:36:46.771Z,88.95
2019-02-05T11:37:46.994Z,89.39
2019-02-05T11:38:47.217Z,91.09
2019-02-05T11:39:47.445Z,91.85
2019-02-05T11:40:47.668Z,93.08
2019-02-05T11:41:47.888Z,92.71
2019-02-05T11:42:48.111Z,92.99
2019-02-05T11:43:48.339Z,93.27
2019-02-05T11:44:48.560Z,93.56
2019-02-05T11:45:48.785Z,93.18
2019-02-05T11:46:49.006Z,92.85
2019-02-05T11:47:49.231Z,92.47
2019-02-05T11:48:49.455Z,91.71
2019-02-05T11:49:49.681Z,90.95
2019-02-05T11:50:49.905Z,91.24
2019-02-05T11:51:50.127Z,91.04
2019-02-05T11:52:50.354Z,91.24
2019-02-05T11:53:51.083Z,91.33
2019-02-05T11:54:50.807Z,91.42
2019-02-05T11:55:51.031Z,91.14
2019-02-05T11:56:51.260Z,90.57
2019-02-05T11:57:51.483Z,89.90
2019-02-05T11:58:51.703Z,88.76
2019-02-05T11:59:51.929Z,88.39
2019-02-05T12:00:52.152Z,89.38
2019-02-05T12:01:52.376Z,88.67
2019-02-05T12:02:52.606Z,89.43
2019-02-05T12:03:52.827Z,89.14
2019-02-05T12:04:53.059Z,89.24
2019-02-05T12:05:53.278Z,89.43
2019-02-05T12:06:53.503Z,88.67
2019-02-05T12:07:53.740Z,88.62
2019-02-05T12:08:53.952Z,88.34
2019-02-05T12:09:54.178Z,88.62
2019-02-05T12:10:54.401Z,88.24
2019-02-05T12:11:54.629Z,87.95
2019-02-05T12:12:54.851Z,88.05
2019-02-05T12:13:55.075Z,86.82
2019-02-05T12:14:55.300Z,86.53
2019-02-05T12:15:55.523Z,86.05
2019-02-05T12:16:55.756Z,85.72
2019-02-05T12:17:55.977Z,84.77
2019-02-05T12:18:56.201Z,84.86
2019-02-05T12:19:56.425Z,84.48
2019-02-05T12:20:56.647Z,84.29
2019-02-05T12:21:56.871Z,84.48
2019-02-05T12:22:57.085Z,83.44
2019-02-05T12:23:57.322Z,83.91
2019-02-05T12:24:57.544Z,84.29
2019-02-05T12:25:57.769Z,82.53
2019-02-05T12:26:57.991Z,80.91
2019-02-05T12:27:58.215Z,80.53
2019-02-05T12:28:58.442Z,79.96
2019-02-05T12:29:58.674Z,79.86
2019-02-05T12:30:58.896Z,79.49
2019-02-05T12:31:59.121Z,79.39
2019-02-05T12:33:01.717Z,78.91
2019-02-05T12:33:59.565Z,78.82
2019-02-05T12:34:59.795Z,78.44
2019-02-05T12:36:00.025Z,78.06
2019-02-05T12:37:00.245Z,78.91
2019-02-05T12:38:00.482Z,77.68
2019-02-05T12:39:00.703Z,78.88
2019-02-05T12:40:00.929Z,79.25
2019-02-05T12:41:01.154Z,79.06
2019-02-05T12:42:01.379Z,79.39
2019-02-05T12:43:01.600Z,79.35
2019-02-05T12:44:01.823Z,79.54
2019-02-05T12:45:02.047Z,79.77
2019-02-05T12:46:02.281Z,79.77
2019-02-05T12:47:02.494Z,79.83
2019-02-05T12:48:02.722Z,80.40
2019-02-05T12:49:02.941Z,80.30
2019-02-05T12:50:03.171Z,79.73
2019-02-05T12:51:03.396Z,79.68
2019-02-05T12:52:03.619Z,79.77
2019-02-05T12:53:03.869Z,79.06
2019-02-05T12:54:04.105Z,79.06
2019-02-05T12:55:13.375Z,79.30
2019-02-05T12:56:04.562Z,79.44
2019-02-05T12:57:04.783Z,79.35
2019-02-05T12:58:05.065Z,79.30
2019-02-05T12:59:05.292Z,79.30
2019-02-05T13:00:05.517Z,80.05
2019-02-05T13:01:05.737Z,79.68
2019-02-05T13:02:05.981Z,78.06
2019-02-05T13:03:06.207Z,77.91
2019-02-05T13:04:06.432Z,77.39
2019-02-05T13:05:06.659Z,77.34
2019-02-05T13:06:06.891Z,77.15
2019-02-05T13:07:07.110Z,76.82
2019-02-05T13:08:07.340Z,76.63
2019-02-05T13:09:07.569Z,76.67
2019-02-05T13:10:07.791Z,76.01
2019-02-05T13:11:08.015Z,75.59
2019-02-05T13:12:08.236Z,75.81
2019-02-05T13:13:08.479Z,75.91
2019-02-05T13:14:08.686Z,76.39
2019-02-05T13:15:08.913Z,76.44
2019-02-05T13:16:09.142Z,76.20
2019-02-05T13:17:09.360Z,76.39
2019-02-05T13:18:09.583Z,76.44
2019-02-05T13:19:09.808Z,77.20
2019-02-05T13:20:10.034Z,77.01
2019-02-05T13:21:10.266Z,77.20
2019-02-05T13:22:10.487Z,77.39
2019-02-05T13:23:10.713Z,77.58
2019-02-05T13:24:10.935Z,78.16
2019-02-05T13:25:11.158Z,77.87
2019-02-05T13:26:11.382Z,77.87
2019-02-05T13:27:11.613Z,77.39
2019-02-05T13:28:11.848Z,77.34
2019-02-05T13:29:12.079Z,77.34
2019-02-05T13:30:12.303Z,77.01
2019-02-05T13:31:12.527Z,77.20
2019-02-05T13:32:12.753Z,77.68
2019-02-05T13:33:12.997Z,77.68
2019-02-05T13:34:13.222Z,77.30
2019-02-05T13:35:13.457Z,77.68
2019-02-05T13:36:13.692Z,77.97
2019-02-05T13:37:13.952Z,78.63
2019-02-05T13:38:14.179Z,79.01
2019-02-05T13:39:14.397Z,78.63
2019-02-05T13:40:14.625Z,79.30
2019-02-05T13:41:14.852Z,78.91
2019-02-05T13:42:15.150Z,79.20
2019-02-05T13:43:15.263Z,79.77
2019-02-05T13:44:15.498Z,79.30
2019-02-05T13:45:15.714Z,79.58
2019-02-05T13:46:15.942Z,79.11
2019-02-05T13:47:16.165Z,78.82
2019-02-05T13:48:16.387Z,78.91
2019-02-05T13:49:16.635Z,79.20
2019-02-05T13:50:16.840Z,79.11
2019-02-05T13:51:17.068Z,79.68
2019-02-05T13:52:17.294Z,79.01
2019-02-05T13:53:17.524Z,79.11
2019-02-05T13:54:17.752Z,79.92
2019-02-05T13:55:17.976Z,79.39
2019-02-05T13:56:18.200Z,79.30
2019-02-05T13:57:18.433Z,79.20
2019-02-05T13:58:18.654Z,79.01
2019-02-05T13:59:18.877Z,79.30
2019-02-05T14:00:19.103Z,79.30
2019-02-05T14:01:20.351Z,79.06
2019-02-05T14:02:19.597Z,80.49
2019-02-05T14:03:19.822Z,79.83
2019-02-05T14:04:20.044Z,79.86
2019-02-05T14:05:20.269Z,80.21
2019-02-05T14:06:20.499Z,80.68